createdAt,value
2022-08-22T00:00:29.460Z,44.70
2022-08-22T00:03:07.041Z,44.81
2022-08-22T00:03:57.486Z,44.90
2022-08-22T00:07:13.494Z,44.94
2022-08-22T00:10:39.538Z,44.99
2022-08-22T00:14:01.111Z,45.11
2022-08-22T00:17:18.538Z,45.18
2022-08-22T00:20:31.498Z,45.22
2022-08-22T00:23:56.570Z,45.40
2022-08-22T00:27:10.536Z,45.19
2022-08-22T00:30:34.561Z,45.50
2022-08-22T00:33:47.603Z,45.71
2022-08-22T00:37:12.611Z,45.45
2022-08-22T00:40:24.634Z,45.41
2022-08-22T00:43:59.645Z,45.62
2022-08-22T00:47:42.634Z,45.60
2022-08-22T00:51:13.607Z,45.79
2022-08-22T00:54:25.611Z,45.85
2022-08-22T00:57:52.708Z,45.99
2022-08-22T01:01:06.742Z,46.01
2022-08-22T01:04:43.672Z,46.06
2022-08-22T01:08:04.658Z,45.98
2022-08-22T01:11:30.657Z,47.08
2022-08-22T01:14:45.698Z,46.18
2022-08-22T01:18:31.722Z,46.30
2022-08-22T01:22:11.720Z,46.35
2022-08-22T01:25:41.799Z,46.37
2022-08-22T01:29:16.745Z,46.62
2022-08-22T01:33:13.748Z,46.58
2022-08-22T01:36:35.770Z,46.87
2022-08-22T01:40:03.823Z,46.64
2022-08-22T01:43:58.646Z,46.84
2022-08-22T01:46:59.769Z,46.65
2022-08-22T01:50:11.820Z,46.65
2022-08-22T01:53:37.802Z,46.72
2022-08-22T01:56:49.815Z,46.87
2022-08-22T02:00:14.832Z,47.37
2022-08-22T02:03:39.872Z,47.16
2022-08-22T02:06:55.886Z,47.03
2022-08-22T02:10:25.852Z,47.09
2022-08-22T02:13:50.900Z,47.05
2022-08-22T02:17:16.871Z,47.28
2022-08-22T02:20:28.857Z,47.14
2022-08-22T02:23:52.867Z,46.91
2022-08-22T02:27:06.855Z,46.73
2022-08-22T02:30:33.916Z,47.11
2022-08-22T02:33:58.954Z,38.20
2022-08-22T02:37:23.958Z,47.02
2022-08-22T02:40:37.949Z,47.17
2022-08-22T02:44:05.967Z,47.00
2022-08-22T02:47:18.003Z,47.01
2022-08-22T02:50:42.979Z,46.88
2022-08-22T02:53:55.025Z,46.86
2022-08-22T02:57:19.995Z,47.05
2022-08-22T03:00:35.063Z,47.11
2022-08-22T03:04:03.052Z,47.36
2022-08-22T03:07:32.040Z,47.34
2022-08-22T03:10:57.058Z,47.52
2022-08-22T03:14:13.026Z,47.26
2022-08-22T03:17:39.029Z,47.48
2022-08-22T03:21:04.068Z,47.52
2022-08-22T03:24:31.144Z,47.46
2022-08-22T03:27:45.347Z,47.42
2022-08-22T03:31:10.094Z,47.50
2022-08-22T03:34:42.123Z,47.37
2022-08-22T03:38:06.152Z,47.47
2022-08-22T03:41:22.252Z,47.31
2022-08-22T03:44:51.137Z,47.22
2022-08-22T03:48:08.143Z,47.28
2022-08-22T03:51:38.144Z,47.58
2022-08-22T03:55:15.177Z,47.50
2022-08-22T03:59:09.955Z,48.98
2022-08-22T04:02:45.217Z,47.85
2022-08-22T04:06:13.195Z,50.88
2022-08-22T04:09:48.200Z,49.81
2022-08-22T04:13:24.889Z,48.68
2022-08-22T04:16:39.234Z,48.44
2022-08-22T04:20:16.664Z,49.66
2022-08-22T04:24:05.239Z,48.53
2022-08-22T04:27:31.280Z,48.44
2022-08-22T04:30:44.270Z,48.13
2022-08-22T04:34:08.299Z,48.17
2022-08-22T04:37:20.392Z,48.25
2022-08-22T04:40:45.341Z,48.32
2022-08-22T04:44:02.318Z,48.26
2022-08-22T04:47:29.347Z,49.57
2022-08-22T04:50:43.273Z,50.20
2022-08-22T04:54:13.394Z,48.62
2022-08-22T04:57:32.356Z,48.47
2022-08-22T05:01:02.509Z,48.45
2022-08-22T05:04:16.441Z,48.62
2022-08-22T05:07:40.381Z,48.29
2022-08-22T05:10:52.422Z,48.33
2022-08-22T05:14:17.438Z,48.29
2022-08-22T05:17:31.550Z,50.41
2022-08-22T05:20:58.598Z,49.39
2022-08-22T05:24:11.437Z,49.39
2022-08-22T05:27:38.447Z,50.88
2022-08-22T05:30:50.471Z,51.84
2022-08-22T05:34:17.140Z,49.83
2022-08-22T05:37:30.490Z,50.16
2022-08-22T05:40:57.500Z,49.26
2022-08-22T05:44:09.528Z,49.02
2022-08-22T05:47:37.550Z,49.72
2022-08-22T05:50:51.527Z,50.34
2022-08-22T05:54:15.538Z,49.45
2022-08-22T05:57:29.568Z,50.02
2022-08-22T06:00:53.560Z,50.71
2022-08-22T06:04:20.583Z,50.31
2022-08-22T06:07:34.549Z,50.41
2022-08-22T06:10:58.620Z,51.78
2022-08-22T06:14:13.037Z,50.42
2022-08-22T06:17:35.599Z,52.31
2022-08-22T06:20:47.630Z,50.78
2022-08-22T06:24:14.644Z,50.72
2022-08-22T06:27:26.644Z,50.44
2022-08-22T06:30:50.653Z,49.99
2022-08-22T06:34:03.635Z,50.39
2022-08-22T06:37:30.679Z,50.74
2022-08-22T06:40:44.680Z,50.01
2022-08-22T06:44:09.679Z,50.68
2022-08-22T06:47:24.777Z,50.27
2022-08-22T06:50:49.734Z,50.63
2022-08-22T06:54:03.751Z,51.16
2022-08-22T06:57:29.761Z,50.04
2022-08-22T07:00:41.837Z,51.28
2022-08-22T07:04:06.769Z,50.03
2022-08-22T07:07:18.786Z,49.27
2022-08-22T07:10:42.770Z,50.10
2022-08-22T07:13:56.820Z,51.93
2022-08-22T07:17:21.783Z,51.77
2022-08-22T07:20:33.819Z,51.60
2022-08-22T07:23:58.800Z,50.60
2022-08-22T07:27:10.849Z,50.33
2022-08-22T07:30:36.827Z,52.16
2022-08-22T07:33:53.889Z,50.35
2022-08-22T07:37:18.837Z,50.56
2022-08-22T07:40:31.849Z,51.29
2022-08-22T07:43:55.875Z,52.66
2022-08-22T07:47:09.891Z,51.38
2022-08-22T07:50:34.866Z,50.72
2022-08-22T07:53:47.961Z,51.49
2022-08-22T07:57:13.940Z,52.40
2022-08-22T08:00:25.916Z,51.65
2022-08-22T08:03:54.988Z,52.12
2022-08-22T08:07:06.960Z,52.36
2022-08-22T08:10:33.013Z,52.59
2022-08-22T08:13:44.982Z,52.23
2022-08-22T08:17:10.009Z,52.53
2022-08-22T08:20:29.019Z,52.19
2022-08-22T08:23:53.988Z,52.03
2022-08-22T08:27:08.426Z,51.63
2022-08-22T08:30:33.981Z,51.44
2022-08-22T08:33:49.025Z,51.59
2022-08-22T08:37:16.029Z,51.81
2022-08-22T08:40:28.048Z,51.33
2022-08-22T08:43:52.070Z,51.58
2022-08-22T08:47:28.088Z,50.81
2022-08-22T08:50:56.203Z,50.48
2022-08-22T08:54:17.104Z,49.60
2022-08-22T08:57:41.093Z,49.25
2022-08-22T09:00:54.207Z,49.07
2022-08-22T09:04:23.127Z,48.18
2022-08-22T09:07:55.361Z,48.10
2022-08-22T09:11:32.286Z,48.18
2022-08-22T09:14:47.163Z,47.26
2022-08-22T09:18:18.418Z,46.99
2022-08-22T09:21:48.190Z,46.32
2022-08-22T09:25:25.222Z,46.09
2022-08-22T09:28:39.227Z,45.66
2022-08-22T09:32:04.170Z,45.23
2022-08-22T09:35:20.198Z,44.93
2022-08-22T09:38:51.237Z,44.55
2022-08-22T09:42:03.256Z,44.17
2022-08-22T09:45:51.280Z,43.81
2022-08-22T09:49:07.255Z,43.25
2022-08-22T09:52:34.040Z,43.00
2022-08-22T09:55:50.178Z,42.96
2022-08-22T09:59:13.318Z,42.94
2022-08-22T10:02:27.283Z,41.92
2022-08-22T10:05:51.288Z,42.02
2022-08-22T10:09:03.287Z,42.16
2022-08-22T10:12:28.403Z,42.00
2022-08-22T10:15:40.315Z,41.96
2022-08-22T10:19:06.345Z,41.59
2022-08-22T10:22:44.632Z,41.54
2022-08-22T10:26:08.343Z,42.16
2022-08-22T10:29:25.376Z,41.66
2022-08-22T10:32:54.454Z,41.60
2022-08-22T10:36:12.013Z,41.30
2022-08-22T10:39:34.405Z,41.42
2022-08-22T10:42:49.434Z,41.26
2022-08-22T10:46:14.433Z,41.13
2022-08-22T10:49:28.679Z,40.88
2022-08-22T10:52:53.499Z,40.67
2022-08-22T10:56:05.515Z,41.18
2022-08-22T10:59:30.489Z,40.17
2022-08-22T11:03:01.649Z,40.35
2022-08-22T11:06:25.542Z,40.15
2022-08-22T11:09:42.506Z,39.87
2022-08-22T11:13:07.521Z,39.85
2022-08-22T11:16:24.696Z,39.29
2022-08-22T11:19:51.553Z,38.73
2022-08-22T11:23:05.548Z,38.95
2022-08-22T11:26:47.266Z,38.35
2022-08-22T11:29:56.663Z,38.96
2022-08-22T11:33:47.325Z,38.37
2022-08-22T11:36:50.602Z,38.34
2022-08-22T11:40:20.774Z,38.51
2022-08-22T11:43:38.592Z,37.10
2022-08-22T11:47:03.611Z,37.61
2022-08-22T11:50:17.615Z,37.62
2022-08-22T11:53:43.709Z,37.00
2022-08-22T11:57:07.654Z,37.45
2022-08-22T12:00:39.688Z,39.02
2022-08-22T12:04:25.660Z,37.33
2022-08-22T12:07:37.706Z,35.53
2022-08-22T12:11:01.676Z,36.54
2022-08-22T12:14:13.700Z,35.88
2022-08-22T12:17:55.558Z,34.92
2022-08-22T12:21:00.908Z,35.09
2022-08-22T12:24:39.728Z,35.48
2022-08-22T12:28:13.916Z,33.57
2022-08-22T12:31:37.735Z,33.69
2022-08-22T12:34:51.770Z,32.74
2022-08-22T12:38:29.286Z,33.47
2022-08-22T12:41:35.774Z,33.47
2022-08-22T12:45:06.589Z,31.98
2022-08-22T12:48:20.800Z,34.15
2022-08-22T12:51:51.958Z,32.97
2022-08-22T12:55:33.828Z,34.09
2022-08-22T12:59:01.903Z,34.14
2022-08-22T13:02:13.807Z,33.24
2022-08-22T13:05:41.080Z,33.15
2022-08-22T13:08:51.866Z,31.31
2022-08-22T13:12:20.104Z,32.24
2022-08-22T13:15:28.872Z,31.36
2022-08-22T13:18:56.887Z,32.59
2022-08-22T13:22:08.861Z,33.65
2022-08-22T13:25:34.910Z,33.24
2022-08-22T13:28:46.937Z,34.17
2022-08-22T13:32:11.922Z,33.08
2022-08-22T13:35:24.469Z,33.49
2022-08-22T13:38:47.942Z,33.70
2022-08-22T13:42:14.408Z,34.52
2022-08-22T13:45:34.952Z,33.04
2022-08-22T13:48:46.982Z,32.02
2022-08-22T13:52:14.455Z,32.77
2022-08-22T13:55:24.985Z,33.50
2022-08-22T13:58:49.980Z,33.37
2022-08-22T14:02:03.101Z,34.04
2022-08-22T14:05:27.049Z,33.30
2022-08-22T14:08:39.023Z,33.61
2022-08-22T14:12:03.024Z,33.99
2022-08-22T14:15:22.039Z,32.99
2022-08-22T14:18:50.043Z,33.64
2022-08-22T14:22:03.086Z,33.02
2022-08-22T14:25:27.058Z,33.67
2022-08-22T14:28:45.088Z,33.62
2022-08-22T14:32:23.330Z,33.31
2022-08-22T14:35:37.872Z,33.69
2022-08-22T14:39:01.092Z,33.83
2022-08-22T14:42:13.122Z,33.78
2022-08-22T14:45:38.178Z,33.78
2022-08-22T14:48:55.089Z,33.59
2022-08-22T14:52:21.173Z,33.41
2022-08-22T14:55:34.175Z,31.29
2022-08-22T14:58:59.175Z,32.91
2022-08-22T15:02:18.158Z,32.70
2022-08-22T15:05:44.953Z,31.46
2022-08-22T15:08:56.181Z,29.14
2022-08-22T15:12:20.195Z,32.26
2022-08-22T15:15:33.210Z,32.31
2022-08-22T15:18:58.250Z,30.75
2022-08-22T15:22:13.525Z,31.63
2022-08-22T15:25:37.433Z,32.69
2022-08-22T15:28:52.640Z,32.26
2022-08-22T15:32:14.275Z,30.24
2022-08-22T15:35:30.046Z,32.87
2022-08-22T15:38:55.288Z,33.08
2022-08-22T15:42:10.288Z,32.97
2022-08-22T15:45:43.897Z,33.01
2022-08-22T15:48:54.305Z,32.94
2022-08-22T15:52:18.360Z,32.88
2022-08-22T15:55:34.407Z,32.96
2022-08-22T15:59:00.379Z,32.92
2022-08-22T16:02:14.459Z,32.89
2022-08-22T16:05:44.369Z,32.90
2022-08-22T16:08:56.392Z,32.89
2022-08-22T16:12:22.396Z,32.86
2022-08-22T16:15:37.403Z,32.86
2022-08-22T16:19:04.384Z,32.92
2022-08-22T16:22:37.423Z,32.86
2022-08-22T16:26:08.463Z,32.83
2022-08-22T16:29:22.405Z,32.89
2022-08-22T16:32:47.444Z,32.97
2022-08-22T16:36:06.439Z,33.12
2022-08-22T16:39:32.460Z,33.19
2022-08-22T16:42:51.481Z,33.20
2022-08-22T16:46:17.456Z,33.23
2022-08-22T16:49:29.534Z,33.20
2022-08-22T16:53:09.491Z,33.18
2022-08-22T16:56:30.523Z,33.27
2022-08-22T17:00:04.581Z,33.20
2022-08-22T17:03:24.522Z,33.17
2022-08-22T17:06:51.546Z,32.68
2022-08-22T17:10:12.388Z,33.37
2022-08-22T17:13:34.604Z,33.20
2022-08-22T17:16:53.400Z,32.36
2022-08-22T17:20:20.580Z,33.01
2022-08-22T17:23:33.605Z,33.07
2022-08-22T17:27:02.595Z,33.04
2022-08-22T17:30:24.583Z,33.03
2022-08-22T17:33:51.701Z,32.70
2022-08-22T17:37:08.644Z,33.11
2022-08-22T17:40:36.640Z,33.27
2022-08-22T17:43:59.634Z,33.28
2022-08-22T17:47:24.660Z,33.34
2022-08-22T17:50:36.722Z,33.27
2022-08-22T17:54:02.706Z,33.49
2022-08-22T17:57:15.669Z,33.68
2022-08-22T18:00:40.757Z,33.73
2022-08-22T18:04:04.684Z,33.60
2022-08-22T18:07:16.765Z,33.94
2022-08-22T18:10:44.718Z,34.21
2022-08-22T18:14:04.940Z,34.29
2022-08-22T18:17:36.762Z,34.45
2022-08-22T18:20:48.778Z,34.57
2022-08-22T18:24:12.762Z,34.65
2022-08-22T18:27:29.636Z,34.64
2022-08-22T18:30:52.765Z,34.62
2022-08-22T18:34:05.790Z,34.84
2022-08-22T18:37:30.898Z,35.16
2022-08-22T18:40:49.774Z,35.44
2022-08-22T18:44:12.878Z,35.46
2022-08-22T18:47:24.836Z,35.96
2022-08-22T18:50:52.948Z,36.09
2022-08-22T18:54:06.890Z,36.10
2022-08-22T18:57:38.732Z,36.20
2022-08-22T19:00:46.878Z,36.44
2022-08-22T19:04:13.949Z,36.58
2022-08-22T19:07:38.875Z,36.89
2022-08-22T19:11:05.896Z,37.36
2022-08-22T19:14:25.902Z,37.38
2022-08-22T19:18:09.065Z,37.63
2022-08-22T19:21:54.444Z,37.50
2022-08-22T19:25:40.007Z,38.04
2022-08-22T19:28:51.941Z,38.08
2022-08-22T19:32:16.049Z,38.44
2022-08-22T19:35:38.997Z,38.44
2022-08-22T19:39:16.004Z,38.90
2022-08-22T19:42:30.994Z,39.98
2022-08-22T19:45:58.015Z,39.50
2022-08-22T19:49:10.059Z,40.69
2022-08-22T19:52:37.059Z,40.14
2022-08-22T19:55:53.115Z,40.22
2022-08-22T19:59:20.069Z,40.65
2022-08-22T20:02:32.158Z,40.37
2022-08-22T20:06:02.231Z,40.36
2022-08-22T20:09:15.133Z,40.67
2022-08-22T20:12:39.131Z,40.90
2022-08-22T20:15:51.108Z,40.80
2022-08-22T20:19:20.125Z,41.13
2022-08-22T20:22:32.131Z,41.90
2022-08-22T20:26:02.376Z,41.48
2022-08-22T20:29:14.184Z,41.67
2022-08-22T20:32:39.228Z,42.02
2022-08-22T20:35:51.202Z,42.18
2022-08-22T20:39:15.183Z,42.12
2022-08-22T20:42:29.180Z,42.78
2022-08-22T20:45:54.210Z,42.35
2022-08-22T20:49:06.232Z,42.74
2022-08-22T20:52:30.198Z,42.33
2022-08-22T20:55:42.276Z,42.85
2022-08-22T20:59:08.277Z,42.85
2022-08-22T21:02:20.366Z,43.39
2022-08-22T21:05:45.257Z,43.09
2022-08-22T21:08:46.308Z,43.23
2022-08-22T21:12:01.500Z,43.12
2022-08-22T21:15:18.291Z,44.37
2022-08-22T21:18:48.290Z,43.32
2022-08-22T21:21:49.335Z,43.35
2022-08-22T21:25:14.330Z,43.33
2022-08-22T21:28:26.351Z,43.39
2022-08-22T21:31:52.409Z,43.36
2022-08-22T21:35:07.367Z,43.46
2022-08-22T21:38:31.373Z,43.69
2022-08-22T21:41:50.368Z,44.76
2022-08-22T21:45:19.369Z,43.73
2022-08-22T21:49:00.398Z,43.97
2022-08-22T21:52:13.403Z,44.29
2022-08-22T21:55:38.432Z,44.51
2022-08-22T21:59:02.433Z,44.25
2022-08-22T22:02:14.432Z,44.31
2022-08-22T22:05:43.450Z,45.13
2022-08-22T22:08:47.497Z,44.97
2022-08-22T22:12:00.619Z,44.38
2022-08-22T22:15:12.457Z,44.60
2022-08-22T22:18:36.496Z,44.58
2022-08-22T22:21:50.495Z,44.42
2022-08-22T22:25:41.357Z,44.42
2022-08-22T22:28:26.542Z,44.23
2022-08-22T22:31:50.538Z,44.44
2022-08-22T22:34:51.511Z,44.24
2022-08-22T22:38:23.920Z,44.28
2022-08-22T22:41:32.551Z,44.49
2022-08-22T22:44:47.487Z,44.94
2022-08-22T22:47:57.605Z,45.89
2022-08-22T22:51:24.577Z,44.99
2022-08-22T22:54:38.609Z,44.97
2022-08-22T22:58:02.667Z,44.93
2022-08-22T23:01:03.682Z,46.14
2022-08-22T23:04:28.658Z,45.70
2022-08-22T23:07:40.621Z,45.95
2022-08-22T23:11:06.661Z,45.58
2022-08-22T23:14:18.632Z,46.03
2022-08-22T23:17:42.671Z,46.37
2022-08-22T23:20:43.673Z,46.67
2022-08-22T23:24:07.726Z,46.55
2022-08-22T23:27:20.713Z,46.11
2022-08-22T23:30:44.711Z,46.27
2022-08-22T23:33:45.839Z,46.83
2022-08-22T23:37:09.745Z,46.24
2022-08-22T23:40:10.825Z,46.11
2022-08-22T23:43:35.780Z,46.06
2022-08-22T23:46:47.749Z,46.79
2022-08-22T23:50:05.836Z,47.66
2022-08-22T23:53:01.810Z,46.47
2022-08-22T23:56:32.783Z,46.43
2022-08-22T23:59:57.461Z,48.23
